x

Orange Beach - 44 Nm Se Of Mobile, Al (42012) Wave Buoy

4:50pm - Fri 28th Nov 2014 All times are CST. -6 hours from GMT.

  • Sig Wave height 1.6ft
  • Swell Direction
  • Peak Period 5s
  • Average Period 4s
  • Wind
    2mph, 4mph gusts
  • Sea Temp 65°f
  • Air Temp 55°f
  • Sea Pressure 1026.2mb
  • Orange Beach - 44 Nm Se Of Mobile, Al
  • Orange Beach - 44 Nm Se Of Mobile, Al

More Historic Weather Station data

Upgrade to MSW Pro to gain access to the past 30 days of data for over 8000 Wavebouys and Weather Stations around the globe.

Join Pro

Comparision Forecast

View Surf forecast
   
Fri 11/28 4:50pm 1.6ft 5s 4s 2 4 mph 1026.2mb 65f 55f
3:50pm 1.6ft 5s 4s 4 7 mph 1026.1mb 65f 55f
2:50pm 1.6ft 5s 4s 7
mph
1026.2mb 65f 53f
1:50pm 2ft 4s 4s 7 9 mph 1026.8mb 65f 52f
12:50pm 2ft 5s 4s 7 9 mph 1027.6mb 65f 51f
11:50am 2.5ft 5s 4s 9 11 mph 1028.7mb 65f 49f
10:50am 2.5ft 5s 4s 11 16 mph 1029.8mb 64f 48f
9:50am 2.5ft 5s 4s 13 18 mph 1030.3mb 64f 48f
8:50am 2.5ft 5s 4s 16 20 mph 1030mb 64f 48f
7:50am 2.5ft 5s 4s 16 20 mph 1029.6mb 64f 48f
6:50am 2.5ft 5s 4s 16 22 mph 1029.2mb 64f 47f
5:50am 2.5ft 5s 4s 18 22 mph 1029mb 64f 46f
4:50am 2.5ft 5s 4s 18 20 mph 1029.2mb 64f 46f
3:50am 2.5ft 5s 4s 18 22 mph 1029mb 64f 46f
2:50am 2.5ft 4s 4s 18 25 mph 1029mb 64f 47f
1:50am 3ft 5s 4s 20 22 mph 1029mb 64f 48f
12:50am 3ft 5s 4s 20 25 mph 1028.8mb 64f 49f
Thu 11/27 11:50pm 2.5ft 4s 4s 18 22 mph 1029.4mb 64f 49f
10:50pm 2.5ft 5s 4s 22 27 mph 1029.5mb 64f 50f
9:50pm 3ft 4s 4s 22 27 mph 1029.7mb 64f 51f
8:50pm 2.5ft 4s 3s 25 29 mph 1029.3mb 64f 53f
7:50pm 2.5ft 4s 3s 22 27 mph 1029.1mb 64f 55f
6:50pm 2.5ft 4s 3s 18 25 mph 1029.1mb 64f 56f
5:50pm 2.5ft 4s 3s 18 22 mph 1028.5mb 64f 56f
4:50pm 2ft 3s 3s 20 25 mph 1027.6mb 64f 58f
3:50pm 2ft 3s 3s 16 20 mph 1026.9mb 64f 58f
2:50pm 2ft 3s 3s 16 18 mph 1026.6mb 64f 59f
1:50pm 2ft 3s 4s 13 18 mph 1026.6mb 64f 58f
12:50pm 2ft 3s 4s 11 16 mph 1026.7mb 64f 57f
11:50am 2.5ft 4s 4s 13 18 mph 1027.6mb 64f 56f
10:50am 2.5ft 5s 4s 16 18 mph 1028.1mb 64f 55f
9:50am 2.5ft 5s 4s 16 18 mph 1028.4mb 64f 55f
8:50am 3ft 5s 4s 18 20 mph 1028.1mb 64f 55f
7:50am 3.5ft 5s 4s 20 25 mph 1027.4mb 64f 56f
6:50am 3.5ft 6s 4s 18 22 mph 1026.6mb 64f 56f
5:50am 4ft 6s 5s 20 22 mph 1025.8mb 64f 57f
4:50am 4.5ft 6s 5s 18 22 mph 1025.1mb 65f 58f
3:50am 5ft 6s 5s 20 22 mph 1024.2mb 65f 59f
2:50am 5.5ft 6s 5s 25 29 mph 1023.7mb 66f 60f
1:50am 6.5ft 6s 5s 29 34 mph 1022.9mb 67f 63f
12:50am 6.5ft 6s 5s 27 34 mph 1022.7mb 67f 65f
Wed 11/26 11:50pm 6.5ft 6s 5s 29 36 mph 1022.6mb 67f 65f
10:50pm 6ft 6s 5s 27 34 mph 1022.6mb 67f 65f
9:50pm 4.5ft 5s 4s 25 31 mph 1022.3mb 67f 65f
8:50pm 3.5ft 5s 4s 27 29 mph 1022.2mb 67f 65f
7:50pm 2.5ft 4s 3s 22 27 mph 1022.2mb 67f 64f
6:50pm 1.6ft 4s 3s 20 25 mph 1022.2mb 67f 63f
5:50pm 1.3ft 3s 3s 16 20 mph 1021.8mb 67f 62f
4:50pm 1ft 3s 3s 16 20 mph 1021.7mb 67f 61f
3:50pm 1ft 2s 3s 13 18 mph 1022mb 67f 60f
2:50pm 1ft 2s 3s 13 16 mph 1022mb 67f 58f
1:50pm 1ft 3s 3s 11 16 mph 1022.6mb 67f 57f
12:50pm 0.7ft  -  3s 9 11 mph 1022.7mb 67f 56f
11:50am 1ft 3s 3s 9 11 mph 1023.8mb 67f 55f
10:50am 1ft 4s 3s 7 9 mph 1024mb 67f 53f
9:50am 1.3ft 4s 3s 9 11 mph 1024.5mb 67f 52f
8:50am 1.6ft 3s 3s 11 16 mph 1024.3mb 67f 51f
7:50am 2.5ft 5s 3s 16 18 mph 1023.6mb 67f 50f
6:50am 2.5ft 4s 3s 18 20 mph 1022.9mb 67f 49f
5:50am 2.5ft 4s 4s 18 22 mph 1022mb 67f 49f
4:50am 2.5ft 5s 4s 18 22 mph 1020.9mb 67f 49f
3:50am 3ft 5s 4s 22 25 mph 1020.6mb 67f 51f
2:50am 3.5ft 5s 4s 22 27 mph 1020.4mb 67f 52f
1:50am 3ft 4s 4s 22 27 mph 1019.8mb 67f 53f
12:50am 3ft 5s 4s 22 29 mph 1019.2mb 67f 54f
Tue 11/25 11:50pm 3.5ft 4s 4s 22 27 mph 1019mb 67f 55f
10:50pm 3ft 3s 3s 25 29 mph 1019.1mb 67f 56f
9:50pm 2.5ft 4s 3s 20 27 mph 1019.6mb 68f 58f
8:50pm 2.5ft 4s 4s 18 22 mph 1018.5mb 68f 58f
7:50pm 2.5ft 4s 4s 16 18 mph 1019.8mb 68f 58f
6:50pm 2.5ft 4s 4s 20 25 mph 1019.8mb 68f 58f
5:50pm 2ft 5s 4s 18 22 mph 1018.3mb 68f 59f
4:50pm 2.5ft 5s 4s 16 20 mph 1017.4mb 68f 60f
3:50pm 2.5ft 5s 4s 13 16 mph 1017mb 68f 60f
2:50pm 3ft 5s 4s 16 20 mph 1016.7mb 68f 59f
1:50pm 3.5ft 5s 4s 20 25 mph 1015.9mb 68f 58f
12:50pm 3.5ft 5s 4s 20 25 mph 1016.5mb 68f 57f
11:50am 4ft 5s 4s 22 29 mph 1017mb 68f 58f
10:50am 4ft 5s 4s 25 31 mph 1017.5mb 68f 58f
9:50am 3.5ft 5s 4s 27 31 mph 1018.7mb 68f 58f
8:50am 4ft 5s 4s 25 31 mph 1018.4mb 68f 58f
7:50am 4.5ft 5s 4s 29 34 mph 1017mb 68f 59f
6:50am 4ft 4s 4s 29 34 mph 1017.5mb 68f 59f
5:50am 4.5ft 4s 4s 25 29 mph 1018mb 68f 58f
4:50am 4ft 5s 4s 27 31 mph 1016.7mb 68f 59f
3:50am 4ft 4s 4s 27 31 mph 1016.1mb 68f 59f
2:50am 3.5ft 4s 4s 27 34 mph 1016.3mb 68f 60f
1:50am 3.5ft 4s 4s 25 31 mph 1015.4mb 68f 61f
12:50am 3.5ft 4s 4s 22 25 mph 1015.5mb 68f 62f